Airfield :
LOGIN :

Register | Disclaimer

   EN    FR    IT 

 










Legend :    VFR   Marginal VFR   IFR   Intensive IFR   Very Intensive IFR
Visi :
Ceiling :
>= 8 km
>= 3000ft
5 to 8 km
1000 to 3000 ft
1500m to 5 km
500 to 1000 ft
800 to 1500m
200 to 500 ft
< 800m
< 200 ft
Symbols :   Thunderstorms  Fog  Heavy snow  Heavy precipitations  Wind > 20 kt
SIGMETs :     Misc.  Thunderstorms  Icing  Turbulence  Mountain Waves  Volcanic Ashes







- Airport Elevation : 348 ft
- IATA code : LDV
- Download approach charts


LFRJ - Landivisiau

CURRENT METAR :
  • 150500Z AUTO 16017KT 9999 -RA BKN006/// BKN024/// OVC038/// ///CB 08/07 Q1010

EXPIRED METARs :
  • 150430Z AUTO 16019KT 8000 -DZ BKN006/// BKN016/// BKN022/// ///TCU 08/07 Q1010
  • 150400Z AUTO 17018KT 7000 -DZ OVC006 07/07 Q1011
  • 150330Z AUTO 16019G29KT 6000 -RADZ OVC006 07/07 Q1011
  • 150300Z AUTO 16016KT 6000 -DZ OVC007/// ///TCU 07/07 Q1012
  • 150230Z AUTO 16018KT 7000 -RA BKN007/// BKN032/// BKN052/// ///TCU 07/06 Q1012
  • 150200Z AUTO 16014KT 6000 -RA OVC006/// ///TCU 07/06 Q1013

Expired Forecast.
No reported NOTAMs for that airfield.
1 SIGMET reported for the Brest FIR (LFRR) :
 
Severe icing with freezing rain
LFRR SIGMET 1 VALID 150500/150800 LFPW
LFRR BREST FIR/UIR SEV ICE (FZRA) FCST WI N4945 W00015 - N4645 W00015 - N4645 W00130 - N4930 W00245 - N4945 W00015 SFC/FL070 MOV E 15KT NC=



MET'MAP, your aeronautical weather chart ! - Copyright ORBIFLY December 2007 - Disclaimer

ORBIFLY MET'MAP TEAM :

Programming & Development : Alexandra Zaïnal
Concept & Development : Baudouin d'Aumeries
Co-Development & Prog : Marc-Olivier Méhu
Technical & hardware support : Manuel Goepfert

Contact : metmap@orbifly.com




SOURCES & CREDITS :

   NOAA